createdAt,value
2019-03-22T00:04:38.875Z,86.00
2019-03-22T00:07:28.345Z,85.65
2019-03-22T00:10:26.466Z,85.04
2019-03-22T00:27:16.069Z,87.60
2019-03-22T01:25:14.052Z,88.29
2019-03-22T01:27:16.109Z,87.94
2019-03-22T02:30:41.442Z,85.40
2019-03-22T02:33:35.164Z,86.37
2019-03-22T02:36:51.398Z,87.36
2019-03-22T02:39:23.129Z,86.58
2019-03-22T02:42:03.601Z,86.42
2019-03-22T02:44:52.948Z,86.67
2019-03-22T02:47:34.751Z,86.86
2019-03-22T02:50:19.957Z,87.13
2019-03-22T02:53:10.051Z,86.97
2019-03-22T02:55:49.128Z,87.46
2019-03-22T02:58:47.865Z,86.69
2019-03-22T03:01:35.071Z,86.84
2019-03-22T03:10:56.916Z,87.28
2019-03-22T03:14:23.886Z,87.45
2019-03-22T03:20:54.301Z,86.50
2019-03-22T03:23:22.331Z,86.09
2019-03-22T03:25:50.294Z,86.49
2019-03-22T03:28:36.128Z,86.73
2019-03-22T03:30:55.411Z,86.77
2019-03-22T03:33:23.550Z,86.40
2019-03-22T03:35:51.728Z,86.17
2019-03-22T03:38:19.752Z,86.58
2019-03-22T03:40:47.702Z,87.54
2019-03-22T03:43:15.791Z,87.42
2019-03-22T03:45:43.769Z,87.03
2019-03-22T03:48:14.255Z,86.26
2019-03-22T03:50:42.305Z,86.10
2019-03-22T03:53:12.606Z,86.26
2019-03-22T03:55:40.628Z,86.51
2019-03-22T03:58:11.452Z,87.34
2019-03-22T04:00:46.078Z,87.08
2019-03-22T04:03:14.095Z,87.54
2019-03-22T04:05:49.869Z,87.75
2019-03-22T04:08:20.564Z,87.56
2019-03-22T04:10:48.687Z,88.01
2019-03-22T04:13:19.054Z,88.18
2019-03-22T04:15:47.296Z,88.63
2019-03-22T04:18:18.225Z,89.13
2019-03-22T04:20:46.273Z,89.90
2019-03-22T04:23:14.314Z,89.27
2019-03-22T04:25:45.148Z,89.25
2019-03-22T04:28:18.191Z,89.30
2019-03-22T04:30:46.342Z,89.90
2019-03-22T04:33:14.514Z,89.96
2019-03-22T04:35:45.443Z,90.02
2019-03-22T04:38:17.077Z,89.82
2019-03-22T04:40:45.082Z,89.97
2019-03-22T04:43:15.027Z,89.96
2019-03-22T04:45:44.242Z,90.29
2019-03-22T04:48:20.560Z,90.55
2019-03-22T04:50:49.072Z,90.60
2019-03-22T04:53:21.638Z,90.64
2019-03-22T04:55:56.427Z,91.25
2019-03-22T04:58:26.521Z,91.89
2019-03-22T05:01:03.119Z,92.43
2019-03-22T05:03:34.140Z,92.41
2019-03-22T05:06:02.929Z,92.71
2019-03-22T05:08:36.762Z,93.35
2019-03-22T05:11:09.562Z,93.64
2019-03-22T05:13:42.065Z,93.46
2019-03-22T05:16:11.746Z,93.04
2019-03-22T05:18:43.898Z,92.88
2019-03-22T05:21:13.387Z,92.59
2019-03-22T05:23:42.131Z,92.42
2019-03-22T05:26:12.837Z,92.56
2019-03-22T05:28:45.720Z,92.57
2019-03-22T05:31:50.344Z,92.09
2019-03-22T05:34:38.100Z,92.15
2019-03-22T05:37:06.152Z,91.89
2019-03-22T05:39:36.993Z,91.37
2019-03-22T05:42:06.876Z,91.23
2019-03-22T05:44:37.159Z,91.99
2019-03-22T05:47:10.122Z,91.69
2019-03-22T05:49:39.589Z,91.64
2019-03-22T05:52:07.621Z,91.42
2019-03-22T05:54:37.096Z,91.25
2019-03-22T05:57:13.244Z,91.68
2019-03-22T05:59:42.898Z,91.27
2019-03-22T06:02:08.283Z,90.95
2019-03-22T06:04:36.343Z,90.98
2019-03-22T06:07:14.221Z,91.02
2019-03-22T06:09:55.045Z,91.07
2019-03-22T06:17:23.846Z,90.91
2019-03-22T06:19:52.098Z,90.30
2019-03-22T06:22:23.357Z,90.20
2019-03-22T06:24:57.026Z,90.64
2019-03-22T06:27:26.887Z,90.07
2019-03-22T06:37:40.900Z,90.03
2019-03-22T06:40:49.636Z,89.43
2019-03-22T06:43:28.842Z,89.04
2019-03-22T06:46:28.293Z,89.06
2019-03-22T06:49:44.380Z,88.72
2019-03-22T06:52:39.591Z,88.03
2019-03-22T07:23:10.626Z,78.96
2019-03-22T07:29:08.966Z,77.08
2019-03-22T07:32:30.575Z,74.98
2019-03-22T07:38:58.744Z,73.04
2019-03-22T07:53:12.782Z,64.84
2019-03-22T08:04:42.841Z,63.21
2019-03-22T08:07:41.091Z,62.50
2019-03-22T08:10:10.093Z,61.80
2019-03-22T08:12:51.673Z,62.84
2019-03-22T08:15:53.920Z,66.83
2019-03-22T08:19:43.705Z,67.97
2019-03-22T08:21:51.056Z,70.26
2019-03-22T08:24:45.962Z,69.79
2019-03-22T08:41:28.441Z,66.39
2019-03-22T08:44:06.543Z,64.99
2019-03-22T08:46:34.761Z,63.00
2019-03-22T08:49:03.042Z,63.04
2019-03-22T08:51:31.543Z,64.45
2019-03-22T08:54:10.797Z,62.05
2019-03-22T08:56:39.021Z,61.59
2019-03-22T08:59:07.465Z,61.21
2019-03-22T09:01:36.025Z,62.18
2019-03-22T09:04:04.641Z,65.67
2019-03-22T09:06:36.500Z,64.09
2019-03-22T09:09:08.060Z,66.17
2019-03-22T09:11:40.448Z,68.71
2019-03-22T09:14:23.124Z,66.92
2019-03-22T09:16:47.045Z,67.28
2019-03-22T09:19:15.382Z,67.28
2019-03-22T09:21:43.794Z,67.74
2019-03-22T09:24:23.024Z,67.38
2019-03-22T09:27:11.288Z,67.94
2019-03-22T09:29:47.322Z,67.96
2019-03-22T09:32:25.837Z,68.99
2019-03-22T09:35:01.429Z,67.86
2019-03-22T09:37:49.433Z,68.28
2019-03-22T09:40:26.802Z,66.61
2019-03-22T09:42:54.962Z,67.56
2019-03-22T09:45:23.122Z,67.06
2019-03-22T09:47:51.525Z,66.93
2019-03-22T09:50:19.802Z,65.31
2019-03-22T09:52:48.022Z,64.67
2019-03-22T09:55:16.622Z,64.62
2019-03-22T09:57:44.866Z,65.13
2019-03-22T10:00:18.780Z,64.30
2019-03-22T10:02:47.055Z,63.84
2019-03-22T10:05:17.563Z,64.69
2019-03-22T10:07:45.701Z,63.19
2019-03-22T10:10:13.891Z,63.69
2019-03-22T10:12:42.025Z,63.52
2019-03-22T10:15:10.205Z,63.14
2019-03-22T10:17:40.281Z,63.21
2019-03-22T10:20:11.297Z,62.20
2019-03-22T10:22:42.481Z,61.77
2019-03-22T10:25:10.641Z,61.79
2019-03-22T10:27:38.842Z,60.85
2019-03-22T10:30:07.124Z,60.70
2019-03-22T10:32:35.185Z,59.87
2019-03-22T10:35:03.641Z,60.50
2019-03-22T10:37:31.786Z,58.93
2019-03-22T10:39:59.962Z,61.67
2019-03-22T10:42:28.156Z,58.29
2019-03-22T10:44:56.331Z,60.59
2019-03-22T10:47:24.568Z,58.94
2019-03-22T10:49:52.871Z,58.52
2019-03-22T10:52:23.862Z,59.19
2019-03-22T10:54:52.001Z,60.17
2019-03-22T10:57:20.126Z,58.40
2019-03-22T10:59:48.320Z,58.57
2019-03-22T11:02:16.686Z,57.75
2019-03-22T11:04:44.882Z,59.85
2019-03-22T11:07:19.082Z,58.43
2019-03-22T11:09:50.081Z,58.20
2019-03-22T11:12:57.156Z,56.92
2019-03-22T11:15:25.503Z,57.15
2019-03-22T11:21:30.868Z,54.51
2019-03-22T11:23:59.170Z,54.08
2019-03-22T11:26:27.288Z,50.39
2019-03-22T11:28:57.641Z,51.14
2019-03-22T11:31:28.551Z,48.88
2019-03-22T11:33:55.861Z,50.80
2019-03-22T11:36:24.121Z,53.02
2019-03-22T11:38:52.301Z,52.55
2019-03-22T11:41:27.318Z,52.84
2019-03-22T11:43:57.022Z,53.29
2019-03-22T11:46:33.161Z,52.28
2019-03-22T11:49:01.508Z,54.09
2019-03-22T11:51:29.681Z,53.76
2019-03-22T11:53:57.801Z,54.04
2019-03-22T11:56:25.921Z,53.31
2019-03-22T11:58:54.181Z,53.16
2019-03-22T12:01:28.145Z,48.94
2019-03-22T12:03:57.361Z,46.69
2019-03-22T12:06:27.308Z,48.16
2019-03-22T12:08:55.743Z,48.15
2019-03-22T12:11:23.842Z,46.43
2019-03-22T12:13:52.121Z,47.13
2019-03-22T12:16:57.701Z,48.55
2019-03-22T12:19:40.379Z,47.63
2019-03-22T12:22:38.529Z,46.69
2019-03-22T12:25:30.199Z,46.45
2019-03-22T12:31:23.561Z,45.61
2019-03-22T12:33:51.552Z,45.52
2019-03-22T12:40:00.782Z,44.30
2019-03-22T12:53:59.142Z,43.98
2019-03-22T12:56:30.482Z,43.98
2019-03-22T12:59:05.973Z,44.36
2019-03-22T13:02:04.689Z,44.64
2019-03-22T13:05:01.281Z,43.64
2019-03-22T13:11:14.662Z,44.12
2019-03-22T13:13:48.561Z,44.52
2019-03-22T13:16:18.921Z,46.51
2019-03-22T13:18:58.321Z,46.77
2019-03-22T13:21:26.441Z,46.15
2019-03-22T13:23:54.582Z,45.42
2019-03-22T13:26:22.663Z,44.91
2019-03-22T13:28:50.959Z,44.88
2019-03-22T13:31:19.221Z,44.19
2019-03-22T13:33:52.024Z,44.68
2019-03-22T13:36:20.322Z,42.66
2019-03-22T13:38:48.720Z,42.20
2019-03-22T13:41:16.941Z,41.99
2019-03-22T13:43:45.059Z,42.27
2019-03-22T13:46:13.261Z,43.63
2019-03-22T13:48:41.365Z,43.02
2019-03-22T13:51:09.522Z,43.57
2019-03-22T13:53:37.562Z,43.27
2019-03-22T13:56:05.781Z,42.30
2019-03-22T14:04:49.943Z,44.15
2019-03-22T14:07:18.560Z,44.34
2019-03-22T14:09:46.841Z,43.49
2019-03-22T14:12:15.061Z,45.24
2019-03-22T14:22:56.040Z,44.15
2019-03-22T14:33:23.101Z,44.29
2019-03-22T14:37:09.319Z,43.33
2019-03-22T14:44:06.439Z,42.91
2019-03-22T15:20:29.948Z,44.87
2019-03-22T15:24:22.221Z,45.11
2019-03-22T15:27:11.880Z,43.67
2019-03-22T15:30:25.415Z,43.97
2019-03-22T15:37:11.340Z,44.11
2019-03-22T15:39:59.181Z,45.38
2019-03-22T15:42:28.462Z,45.13
2019-03-22T15:44:56.869Z,45.25
2019-03-22T15:47:26.602Z,44.59
2019-03-22T15:49:55.548Z,44.95
2019-03-22T15:52:23.864Z,45.41
2019-03-22T15:54:53.881Z,46.54
2019-03-22T15:57:22.200Z,47.63
2019-03-22T15:59:53.441Z,45.94
2019-03-22T16:02:22.021Z,46.45
2019-03-22T16:04:50.342Z,45.18
2019-03-22T16:07:18.601Z,46.67
2019-03-22T16:09:46.722Z,45.54
2019-03-22T16:12:14.880Z,45.23
2019-03-22T16:14:42.981Z,46.92
2019-03-22T16:17:11.162Z,46.58
2019-03-22T16:19:39.725Z,46.63
2019-03-22T16:22:08.003Z,46.97
2019-03-22T16:24:36.142Z,46.48
2019-03-22T16:27:04.542Z,46.74
2019-03-22T16:29:32.682Z,47.27
2019-03-22T16:32:00.889Z,46.97
2019-03-22T16:34:28.961Z,46.20
2019-03-22T16:37:00.262Z,46.76
2019-03-22T16:39:30.102Z,44.84
2019-03-22T16:41:58.501Z,45.68
2019-03-22T16:44:26.680Z,45.48
2019-03-22T16:46:54.841Z,45.21
2019-03-22T16:49:22.801Z,45.64
2019-03-22T16:51:50.821Z,45.96
2019-03-22T16:54:18.756Z,46.08
2019-03-22T16:56:46.827Z,46.52
2019-03-22T16:59:14.849Z,46.59
2019-03-22T17:01:42.972Z,46.33
2019-03-22T17:04:11.337Z,46.17
2019-03-22T17:06:39.331Z,46.04
2019-03-22T17:09:07.496Z,45.80
2019-03-22T17:11:35.768Z,45.86
2019-03-22T17:14:04.021Z,46.57
2019-03-22T17:16:32.191Z,47.78
2019-03-22T17:19:00.656Z,46.95
2019-03-22T17:21:28.852Z,46.94
2019-03-22T17:23:57.149Z,47.72
2019-03-22T17:26:26.647Z,48.54
2019-03-22T17:28:54.882Z,48.47
2019-03-22T17:31:23.077Z,48.65
2019-03-22T17:33:51.456Z,48.70
2019-03-22T17:36:19.745Z,48.30
2019-03-22T17:38:50.154Z,48.75
2019-03-22T17:41:20.991Z,49.81
2019-03-22T17:43:49.170Z,49.51
2019-03-22T17:46:17.272Z,49.25
2019-03-22T17:48:45.971Z,49.20
2019-03-22T17:51:14.421Z,49.60
2019-03-22T17:53:43.058Z,49.72
2019-03-22T17:56:11.322Z,49.83
2019-03-22T17:58:43.867Z,50.06
2019-03-22T18:01:12.447Z,50.42
2019-03-22T18:03:41.114Z,51.37
2019-03-22T18:06:09.706Z,52.07
2019-03-22T18:08:38.002Z,52.74
2019-03-22T18:11:10.174Z,52.92
2019-03-22T18:13:38.866Z,54.05
2019-03-22T18:16:13.377Z,54.32
2019-03-22T18:18:45.906Z,54.43
2019-03-22T18:22:39.690Z,56.27
2019-03-22T18:28:37.857Z,57.10
2019-03-22T18:32:10.328Z,57.68
2019-03-22T18:35:05.096Z,58.57
2019-03-22T18:37:33.606Z,57.84
2019-03-22T18:40:02.549Z,58.17
2019-03-22T18:42:31.037Z,57.25
2019-03-22T18:44:59.539Z,58.43
2019-03-22T18:47:28.077Z,59.27
2019-03-22T18:49:56.595Z,59.34
2019-03-22T18:52:25.137Z,56.54
2019-03-22T18:54:57.041Z,56.36
2019-03-22T18:57:25.748Z,55.98
2019-03-22T18:59:54.227Z,54.94
2019-03-22T19:02:25.568Z,53.41
2019-03-22T19:04:54.187Z,52.68
2019-03-22T19:07:22.732Z,52.26
2019-03-22T19:09:51.259Z,51.76
2019-03-22T19:12:19.796Z,51.34
2019-03-22T19:14:48.360Z,51.05
2019-03-22T19:17:16.876Z,50.83
2019-03-22T19:19:45.452Z,50.69
2019-03-22T19:22:13.937Z,50.19
2019-03-22T19:24:42.479Z,50.27
2019-03-22T19:27:10.927Z,50.07
2019-03-22T19:29:39.867Z,50.23
2019-03-22T19:32:13.733Z,50.17
2019-03-22T19:34:40.642Z,50.19
2019-03-22T19:37:12.239Z,49.92
2019-03-22T19:39:44.006Z,49.75
2019-03-22T19:42:13.850Z,49.82
2019-03-22T19:44:42.417Z,49.99
2019-03-22T19:47:11.954Z,50.24
2019-03-22T19:49:40.993Z,50.27
2019-03-22T19:52:09.912Z,50.25
2019-03-22T19:54:41.127Z,50.70
2019-03-22T19:57:19.446Z,50.82
2019-03-22T19:59:48.056Z,50.83
2019-03-22T20:02:16.655Z,50.90
2019-03-22T20:04:48.079Z,51.09
2019-03-22T20:07:26.398Z,51.05
2019-03-22T20:09:47.218Z,51.17
2019-03-22T20:12:15.937Z,51.61
2019-03-22T20:14:44.562Z,51.71
2019-03-22T20:17:13.096Z,51.96
2019-03-22T20:19:44.338Z,51.70
2019-03-22T20:22:13.155Z,52.11
2019-03-22T20:24:42.417Z,52.02
2019-03-22T20:27:15.707Z,52.05
2019-03-22T20:29:44.567Z,52.15
2019-03-22T20:32:13.242Z,52.37
2019-03-22T20:34:41.988Z,52.59
2019-03-22T20:37:12.022Z,52.65
2019-03-22T20:39:45.651Z,52.96
2019-03-22T20:42:40.206Z,53.17
2019-03-22T20:45:11.546Z,53.33
2019-03-22T20:47:39.902Z,53.52
2019-03-22T20:50:10.712Z,53.77
2019-03-22T20:52:41.308Z,53.94
2019-03-22T20:55:10.546Z,54.14
2019-03-22T20:57:38.977Z,54.10
2019-03-22T21:00:13.317Z,54.06
2019-03-22T21:02:43.236Z,54.42
2019-03-22T21:05:14.442Z,54.68
2019-03-22T21:07:42.922Z,54.63
2019-03-22T21:10:11.782Z,54.72
2019-03-22T21:12:40.317Z,55.00
2019-03-22T21:15:08.768Z,55.12
2019-03-22T21:17:37.119Z,55.36
2019-03-22T21:20:06.446Z,55.30
2019-03-22T21:22:34.859Z,55.24
2019-03-22T21:25:03.682Z,55.40
2019-03-22T21:27:32.096Z,55.50
2019-03-22T21:30:03.570Z,55.53
2019-03-22T21:32:31.874Z,55.21
2019-03-22T21:35:03.117Z,54.97
2019-03-22T21:37:31.482Z,54.62
2019-03-22T21:39:59.973Z,54.85
2019-03-22T21:42:33.247Z,54.56
2019-03-22T21:45:01.707Z,54.69
2019-03-22T21:47:33.704Z,54.55
2019-03-22T21:50:11.615Z,54.50
2019-03-22T21:52:48.915Z,54.34
2019-03-22T21:55:19.766Z,54.19
2019-03-22T21:57:47.855Z,54.46
2019-03-22T22:00:16.993Z,54.27
2019-03-22T22:02:45.213Z,53.91
2019-03-22T22:05:14.460Z,54.10
2019-03-22T22:07:42.896Z,54.05
2019-03-22T22:10:10.891Z,53.73
2019-03-22T22:12:39.025Z,54.04
2019-03-22T22:15:09.807Z,53.91
2019-03-22T22:17:39.365Z,53.43
2019-03-22T22:20:07.691Z,53.39
2019-03-22T22:22:35.687Z,53.44
2019-03-22T22:25:04.043Z,53.39
2019-03-22T22:27:32.016Z,53.42
2019-03-22T22:30:00.041Z,53.68
2019-03-22T22:32:28.026Z,53.10
2019-03-22T22:34:56.061Z,53.50
2019-03-22T22:37:24.246Z,53.43
2019-03-22T22:39:52.658Z,53.42
2019-03-22T22:42:20.970Z,53.43
2019-03-22T22:44:49.036Z,53.90
2019-03-22T22:47:17.411Z,53.90
2019-03-22T22:49:45.556Z,54.35
2019-03-22T22:52:13.701Z,54.32
2019-03-22T22:54:41.726Z,54.21
2019-03-22T22:57:09.775Z,54.10
2019-03-22T22:59:37.796Z,54.28
2019-03-22T23:02:06.004Z,54.50
2019-03-22T23:04:34.000Z,54.17
2019-03-22T23:07:02.158Z,54.21
2019-03-22T23:09:30.101Z,54.31
2019-03-22T23:11:58.181Z,54.21
2019-03-22T23:14:26.201Z,54.63
2019-03-22T23:16:54.231Z,54.96
2019-03-22T23:19:22.261Z,55.17
2019-03-22T23:21:50.261Z,55.08
2019-03-22T23:24:19.536Z,55.60
2019-03-22T23:26:48.516Z,55.72
2019-03-22T23:29:17.252Z,55.73
2019-03-22T23:31:58.798Z,55.76
2019-03-22T23:34:26.876Z,55.70
2019-03-22T23:36:54.871Z,55.84
2019-03-22T23:39:22.956Z,55.82
2019-03-22T23:41:50.966Z,56.24
2019-03-22T23:44:21.737Z,56.58
2019-03-22T23:46:49.778Z,56.88
2019-03-22T23:49:17.814Z,57.01
2019-03-22T23:51:45.929Z,56.97
2019-03-22T23:54:13.947Z,57.24
2019-03-22T23:56:42.152Z,57.18
2019-03-22T23:59:10.220Z,57.27
